sensor_id;sensor_type;location;lat;lon;timestamp;pressure;altitude;pressure_sealevel;temperature;humidity
70015;BME280;57358;51.094;6.760;2023-03-01T00:02:01;102607.13;;;-3.29;100.00
70015;BME280;57358;51.094;6.760;2023-03-01T00:04:28;102659.97;;;-2.62;100.00
70015;BME280;57358;51.094;6.760;2023-03-01T00:06:55;102722.56;;;-2.10;100.00
70015;BME280;57358;51.094;6.760;2023-03-01T00:09:21;102649.56;;;-2.66;100.00
70015;BME280;57358;51.094;6.760;2023-03-01T00:11:48;102706.19;;;-2.12;100.00
70015;BME280;57358;51.094;6.760;2023-03-01T00:14:15;102727.28;;;-1.96;100.00
70015;BME280;57358;51.094;6.760;2023-03-01T00:16:45;102740.19;;;-1.95;100.00
70015;BME280;57358;51.094;6.760;2023-03-01T00:19:19;102464.09;;;-3.58;100.00
70015;BME280;57358;51.094;6.760;2023-03-01T00:21:46;102515.75;;;-3.24;100.00
70015;BME280;57358;51.094;6.760;2023-03-01T00:24:12;102595.06;;;-2.82;100.00
70015;BME280;57358;51.094;6.760;2023-03-01T00:26:39;102693.88;;;-2.22;100.00
70015;BME280;57358;51.094;6.760;2023-03-01T00:29:06;102465.03;;;-3.55;100.00
70015;BME280;57358;51.094;6.760;2023-03-01T00:31:33;102573.59;;;-2.84;100.00
70015;BME280;57358;51.094;6.760;2023-03-01T00:34:04;102717.81;;;-1.97;100.00
70015;BME280;57358;51.094;6.760;2023-03-01T00:36:34;102706.69;;;-1.96;100.00
70015;BME280;57358;51.094;6.760;2023-03-01T00:39:02;102703.97;;;-2.01;100.00
70015;BME280;57358;51.094;6.760;2023-03-01T00:41:30;102646.88;;;-2.44;100.00
70015;BME280;57358;51.094;6.760;2023-03-01T00:43:57;102578.53;;;-2.90;100.00
70015;BME280;57358;51.094;6.760;2023-03-01T00:46:26;102704.63;;;-2.07;100.00
70015;BME280;57358;51.094;6.760;2023-03-01T00:48:53;102330.34;;;-4.43;100.00
70015;BME280;57358;51.094;6.760;2023-03-01T00:51:22;102686.16;;;-2.22;100.00
70015;BME280;57358;51.094;6.760;2023-03-01T00:53:59;102663.22;;;-2.67;100.00
70015;BME280;57358;51.094;6.760;2023-03-01T00:56:26;102678.53;;;-2.45;100.00
70015;BME280;57358;51.094;6.760;2023-03-01T00:58:53;102601.63;;;-3.15;100.00
70015;BME280;57358;51.094;6.760;2023-03-01T01:01:22;102548.84;;;-3.31;100.00
70015;BME280;57358;51.094;6.760;2023-03-01T01:03:57;102688.38;;;-2.58;100.00
70015;BME280;57358;51.094;6.760;2023-03-01T01:06:27;102609.38;;;-3.14;100.00
70015;BME280;57358;51.094;6.760;2023-03-01T01:08:55;102680.47;;;-2.63;100.00
70015;BME280;57358;51.094;6.760;2023-03-01T01:11:24;102677.06;;;-2.64;100.00
70015;BME280;57358;51.094;6.760;2023-03-01T01:13:52;102634.63;;;-3.02;100.00
70015;BME280;57358;51.094;6.760;2023-03-01T01:16:21;102661.47;;;-2.68;100.00
70015;BME280;57358;51.094;6.760;2023-03-01T01:18:47;102361.09;;;-4.43;100.00
70015;BME280;57358;51.094;6.760;2023-03-01T01:21:16;102480.31;;;-3.84;100.00
70015;BME280;57358;51.094;6.760;2023-03-01T01:23:44;102546.91;;;-3.63;100.00
70015;BME280;57358;51.094;6.760;2023-03-01T01:26:14;102585.44;;;-3.37;100.00
70015;BME280;57358;51.094;6.760;2023-03-01T01:28:41;102475.72;;;-3.92;100.00
70015;BME280;57358;51.094;6.760;2023-03-01T01:31:08;102508.03;;;-3.73;100.00
70015;BME280;57358;51.094;6.760;2023-03-01T01:33:35;102630.63;;;-2.94;100.00
70015;BME280;57358;51.094;6.760;2023-03-01T01:36:07;102563.34;;;-3.33;100.00
70015;BME280;57358;51.094;6.760;2023-03-01T01:38:35;102516.50;;;-3.76;100.00
70015;BME280;57358;51.094;6.760;2023-03-01T01:41:02;102405.28;;;-4.26;100.00
70015;BME280;57358;51.094;6.760;2023-03-01T01:43:34;102411.56;;;-4.18;100.00
70015;BME280;57358;51.094;6.760;2023-03-01T01:46:10;102615.41;;;-2.88;100.00
70015;BME280;57358;51.094;6.760;2023-03-01T01:48:46;102607.38;;;-2.97;100.00
70015;BME280;57358;51.094;6.760;2023-03-01T01:51:20;102601.03;;;-3.08;100.00
70015;BME280;57358;51.094;6.760;2023-03-01T01:53:53;102362.94;;;-4.86;100.00
70015;BME280;57358;51.094;6.760;2023-03-01T01:56:22;102493.41;;;-3.76;100.00
70015;BME280;57358;51.094;6.760;2023-03-01T01:58:50;102588.56;;;-3.22;100.00
70015;BME280;57358;51.094;6.760;2023-03-01T02:01:17;102371.59;;;-4.59;100.00
70015;BME280;57358;51.094;6.760;2023-03-01T02:03:44;102578.88;;;-3.29;100.00
70015;BME280;57358;51.094;6.760;2023-03-01T02:06:21;102465.34;;;-3.95;100.00
70015;BME280;57358;51.094;6.760;2023-03-01T02:08:55;102581.69;;;-3.23;100.00
70015;BME280;57358;51.094;6.760;2023-03-01T02:11:24;102496.56;;;-3.83;100.00
70015;BME280;57358;51.094;6.760;2023-03-01T02:13:55;102315.41;;;-4.79;100.00
70015;BME280;57358;51.094;6.760;2023-03-01T02:16:21;102430.50;;;-4.14;100.00
70015;BME280;57358;51.094;6.760;2023-03-01T02:18:49;102448.81;;;-4.04;100.00
70015;BME280;57358;51.094;6.760;2023-03-01T02:27:10;102528.25;;;-3.58;100.00
70015;BME280;57358;51.094;6.760;2023-03-01T02:29:37;102564.88;;;-3.38;100.00
70015;BME280;57358;51.094;6.760;2023-03-01T02:32:04;102248.41;;;-5.36;100.00
70015;BME280;57358;51.094;6.760;2023-03-01T02:34:32;102375.50;;;-4.69;100.00
70015;BME280;57358;51.094;6.760;2023-03-01T02:37:06;101908.75;;;-7.93;100.00
70015;BME280;57358;51.094;6.760;2023-03-01T02:39:39;102586.28;;;-3.38;100.00
70015;BME280;57358;51.094;6.760;2023-03-01T02:42:11;102314.75;;;-4.96;100.00
70015;BME280;57358;51.094;6.760;2023-03-01T02:44:39;102273.28;;;-5.32;100.00
70015;BME280;57358;51.094;6.760;2023-03-01T02:47:05;102467.66;;;-4.26;100.00
70015;BME280;57358;51.094;6.760;2023-03-01T02:49:35;102561.69;;;-3.55;100.00
70015;BME280;57358;51.094;6.760;2023-03-01T02:57:25;102405.97;;;-4.54;100.00
70015;BME280;57358;51.094;6.760;2023-03-01T02:59:54;102576.44;;;-3.74;100.00
70015;BME280;57358;51.094;6.760;2023-03-01T03:02:27;102498.38;;;-4.05;100.00
70015;BME280;57358;51.094;6.760;2023-03-01T03:05:12;102448.88;;;-4.49;100.00
70015;BME280;57358;51.094;6.760;2023-03-01T03:07:42;102365.25;;;-4.92;100.00
70015;BME280;57358;51.094;6.760;2023-03-01T03:10:12;102538.22;;;-3.90;100.00
70015;BME280;57358;51.094;6.760;2023-03-01T03:12:39;102345.94;;;-5.06;100.00
70015;BME280;57358;51.094;6.760;2023-03-01T03:15:08;102536.34;;;-3.94;100.00
70015;BME280;57358;51.094;6.760;2023-03-01T03:17:36;102525.75;;;-4.04;100.00
70015;BME280;57358;51.094;6.760;2023-03-01T03:20:04;102287.50;;;-5.62;100.00
70015;BME280;57358;51.094;6.760;2023-03-01T03:22:31;102439.66;;;-4.66;100.00
70015;BME280;57358;51.094;6.760;2023-03-01T03:25:00;102446.78;;;-4.59;100.00
70015;BME280;57358;51.094;6.760;2023-03-01T03:27:28;102471.75;;;-4.31;100.00
70015;BME280;57358;51.094;6.760;2023-03-01T03:29:54;102303.28;;;-5.28;100.00
70015;BME280;57358;51.094;6.760;2023-03-01T03:32:21;102448.28;;;-4.42;100.00
70015;BME280;57358;51.094;6.760;2023-03-01T03:34:47;102423.47;;;-4.65;100.00
70015;BME280;57358;51.094;6.760;2023-03-01T03:37:16;102035.25;;;-6.95;100.00
70015;BME280;57358;51.094;6.760;2023-03-01T03:40:01;102518.19;;;-4.01;100.00
70015;BME280;57358;51.094;6.760;2023-03-01T03:42:28;102538.16;;;-4.14;100.00
70015;BME280;57358;51.094;6.760;2023-03-01T03:44:54;102380.00;;;-4.86;100.00
70015;BME280;57358;51.094;6.760;2023-03-01T03:47:21;102297.53;;;-5.45;100.00
70015;BME280;57358;51.094;6.760;2023-03-01T03:49:47;102216.72;;;-5.84;100.00
70015;BME280;57358;51.094;6.760;2023-03-01T03:52:14;101980.09;;;-7.33;100.00
70015;BME280;57358;51.094;6.760;2023-03-01T03:54:40;102503.38;;;-4.08;100.00
70015;BME280;57358;51.094;6.760;2023-03-01T03:57:07;102497.75;;;-4.65;100.00
70015;BME280;57358;51.094;6.760;2023-03-01T03:59:33;102369.91;;;-5.04;100.00
70015;BME280;57358;51.094;6.760;2023-03-01T04:02:00;102296.56;;;-5.26;100.00
70015;BME280;57358;51.094;6.760;2023-03-01T04:04:26;101962.28;;;-7.32;100.00
70015;BME280;57358;51.094;6.760;2023-03-01T04:06:53;102317.56;;;-5.12;100.00
70015;BME280;57358;51.094;6.760;2023-03-01T04:09:19;102380.47;;;-4.74;100.00
70015;BME280;57358;51.094;6.760;2023-03-01T04:11:45;102110.81;;;-6.56;100.00
70015;BME280;57358;51.094;6.760;2023-03-01T04:14:12;102477.28;;;-4.20;100.00
70015;BME280;57358;51.094;6.760;2023-03-01T04:16:39;102435.78;;;-4.56;100.00
70015;BME280;57358;51.094;6.760;2023-03-01T04:19:05;102363.03;;;-5.05;100.00
70015;BME280;57358;51.094;6.760;2023-03-01T04:21:32;102276.41;;;-5.62;100.00
70015;BME280;57358;51.094;6.760;2023-03-01T04:23:59;102421.75;;;-4.87;100.00
70015;BME280;57358;51.094;6.760;2023-03-01T04:26:25;102211.09;;;-5.97;100.00
70015;BME280;57358;51.094;6.760;2023-03-01T04:28:53;102473.34;;;-4.57;100.00
70015;BME280;57358;51.094;6.760;2023-03-01T04:31:19;102457.50;;;-4.47;100.00
70015;BME280;57358;51.094;6.760;2023-03-01T04:33:55;102335.34;;;-5.15;100.00
70015;BME280;57358;51.094;6.760;2023-03-01T04:36:24;102382.38;;;-4.91;100.00
70015;BME280;57358;51.094;6.760;2023-03-01T04:38:51;102425.59;;;-4.55;100.00
70015;BME280;57358;51.094;6.760;2023-03-01T04:41:19;102449.44;;;-4.33;100.00
70015;BME280;57358;51.094;6.760;2023-03-01T04:43:46;102257.16;;;-5.52;100.00
70015;BME280;57358;51.094;6.760;2023-03-01T04:46:16;102447.69;;;-4.34;100.00
70015;BME280;57358;51.094;6.760;2023-03-01T04:48:44;102418.75;;;-4.54;100.00
70015;BME280;57358;51.094;6.760;2023-03-01T04:51:11;102203.84;;;-5.87;100.00
70015;BME280;57358;51.094;6.760;2023-03-01T04:53:41;102242.63;;;-5.53;100.00
70015;BME280;57358;51.094;6.760;2023-03-01T04:56:08;102163.28;;;-6.00;100.00
70015;BME280;57358;51.094;6.760;2023-03-01T04:58:34;102452.81;;;-4.34;100.00
70015;BME280;57358;51.094;6.760;2023-03-01T05:01:01;102425.22;;;-4.42;100.00
70015;BME280;57358;51.094;6.760;2023-03-01T05:03:27;102343.31;;;-4.85;100.00
70015;BME280;57358;51.094;6.760;2023-03-01T05:05:58;102379.13;;;-4.64;100.00
70015;BME280;57358;51.094;6.760;2023-03-01T05:08:25;102434.28;;;-4.27;100.00
70015;BME280;57358;51.094;6.760;2023-03-01T05:10:53;102440.31;;;-4.27;100.00
70015;BME280;57358;51.094;6.760;2023-03-01T05:13:20;102432.63;;;-4.25;100.00
70015;BME280;57358;51.094;6.760;2023-03-01T05:15:56;102407.47;;;-4.37;100.00
70015;BME280;57358;51.094;6.760;2023-03-01T05:18:23;102406.69;;;-4.34;100.00
70015;BME280;57358;51.094;6.760;2023-03-01T05:20:52;102221.69;;;-5.66;100.00
70015;BME280;57358;51.094;6.760;2023-03-01T05:23:19;102420.50;;;-4.31;100.00
70015;BME280;57358;51.094;6.760;2023-03-01T05:25:45;102431.84;;;-4.24;100.00
70015;BME280;57358;51.094;6.760;2023-03-01T05:28:12;102425.78;;;-4.26;100.00
70015;BME280;57358;51.094;6.760;2023-03-01T05:30:41;102431.72;;;-4.27;100.00
70015;BME280;57358;51.094;6.760;2023-03-01T05:33:08;102409.03;;;-4.41;100.00
70015;BME280;57358;51.094;6.760;2023-03-01T05:35:43;102335.00;;;-4.79;100.00
70015;BME280;57358;51.094;6.760;2023-03-01T05:38:11;102323.72;;;-4.85;100.00
70015;BME280;57358;51.094;6.760;2023-03-01T05:40:46;102421.59;;;-4.24;100.00
70015;BME280;57358;51.094;6.760;2023-03-01T05:43:14;102417.16;;;-4.28;100.00
70015;BME280;57358;51.094;6.760;2023-03-01T05:45:40;102293.06;;;-5.06;100.00
70015;BME280;57358;51.094;6.760;2023-03-01T05:48:08;102343.75;;;-4.74;100.00
70015;BME280;57358;51.094;6.760;2023-03-01T05:50:38;102386.56;;;-4.48;100.00
70015;BME280;57358;51.094;6.760;2023-03-01T05:53:09;102337.53;;;-4.81;100.00
70015;BME280;57358;51.094;6.760;2023-03-01T05:55:37;102402.75;;;-4.49;100.00
70015;BME280;57358;51.094;6.760;2023-03-01T05:58:06;102398.44;;;-4.50;100.00
70015;BME280;57358;51.094;6.760;2023-03-01T06:00:33;102401.91;;;-4.48;100.00
70015;BME280;57358;51.094;6.760;2023-03-01T06:03:00;102411.25;;;-4.50;100.00
70015;BME280;57358;51.094;6.760;2023-03-01T06:05:27;102403.22;;;-4.59;100.00
70015;BME280;57358;51.094;6.760;2023-03-01T06:07:54;102322.31;;;-5.22;100.00
70015;BME280;57358;51.094;6.760;2023-03-01T06:10:22;102365.19;;;-4.93;100.00
70015;BME280;57358;51.094;6.760;2023-03-01T06:12:48;102405.97;;;-4.77;100.00
70015;BME280;57358;51.094;6.760;2023-03-01T06:15:15;102401.72;;;-4.76;100.00
70015;BME280;57358;51.094;6.760;2023-03-01T06:17:44;102405.06;;;-4.77;100.00
70015;BME280;57358;51.094;6.760;2023-03-01T06:22:39;102343.63;;;-5.23;100.00
70015;BME280;57358;51.094;6.760;2023-03-01T06:25:06;102330.13;;;-5.39;100.00
70015;BME280;57358;51.094;6.760;2023-03-01T06:27:33;102390.72;;;-5.17;100.00
70015;BME280;57358;51.094;6.760;2023-03-01T06:29:59;102390.47;;;-5.03;100.00
70015;BME280;57358;51.094;6.760;2023-03-01T06:32:26;102343.13;;;-5.35;100.00
70015;BME280;57358;51.094;6.760;2023-03-01T06:34:52;102262.06;;;-5.79;100.00
70015;BME280;57358;51.094;6.760;2023-03-01T06:37:19;102367.75;;;-5.16;100.00
70015;BME280;57358;51.094;6.760;2023-03-01T06:39:45;102297.84;;;-5.58;100.00
70015;BME280;57358;51.094;6.760;2023-03-01T06:42:12;102297.16;;;-5.54;100.00
70015;BME280;57358;51.094;6.760;2023-03-01T06:44:38;102392.44;;;-4.95;100.00
70015;BME280;57358;51.094;6.760;2023-03-01T06:47:04;102378.66;;;-4.99;100.00
70015;BME280;57358;51.094;6.760;2023-03-01T06:49:31;102339.59;;;-5.16;100.00
70015;BME280;57358;51.094;6.760;2023-03-01T06:51:57;102398.16;;;-4.80;100.00
70015;BME280;57358;51.094;6.760;2023-03-01T06:54:24;102315.81;;;-5.13;100.00
70015;BME280;57358;51.094;6.760;2023-03-01T06:56:50;102293.47;;;-5.17;100.00
70015;BME280;57358;51.094;6.760;2023-03-01T06:59:17;102401.63;;;-4.55;100.00
70015;BME280;57358;51.094;6.760;2023-03-01T07:01:46;102290.66;;;-5.24;100.00
70015;BME280;57358;51.094;6.760;2023-03-01T07:04:13;102283.66;;;-5.07;100.00
70015;BME280;57358;51.094;6.760;2023-03-01T07:06:39;102394.69;;;-4.35;100.00
70015;BME280;57358;51.094;6.760;2023-03-01T07:09:06;102387.28;;;-4.28;100.00
70015;BME280;57358;51.094;6.760;2023-03-01T07:11:32;102382.38;;;-4.22;100.00
70015;BME280;57358;51.094;6.760;2023-03-01T07:13:59;102383.56;;;-4.12;100.00
70015;BME280;57358;51.094;6.760;2023-03-01T07:16:26;102333.72;;;-4.44;100.00
70015;BME280;57358;51.094;6.760;2023-03-01T07:18:53;102401.94;;;-3.99;100.00
70015;BME280;57358;51.094;6.760;2023-03-01T07:21:19;102407.75;;;-3.79;100.00
70015;BME280;57358;51.094;6.760;2023-03-01T07:23:47;102326.44;;;-4.08;100.00
70015;BME280;57358;51.094;6.760;2023-03-01T07:26:15;102314.91;;;-3.95;100.00
70015;BME280;57358;51.094;6.760;2023-03-01T07:28:41;102387.59;;;-3.43;100.00
70015;BME280;57358;51.094;6.760;2023-03-01T07:31:08;102383.69;;;-3.32;100.00
70015;BME280;57358;51.094;6.760;2023-03-01T07:33:34;102338.56;;;-3.52;100.00
70015;BME280;57358;51.094;6.760;2023-03-01T07:36:02;102380.84;;;-3.14;100.00
70015;BME280;57358;51.094;6.760;2023-03-01T07:38:29;102212.38;;;-3.93;100.00
70015;BME280;57358;51.094;6.760;2023-03-01T07:41:00;102366.59;;;-3.04;100.00
70015;BME280;57358;51.094;6.760;2023-03-01T07:43:29;102392.34;;;-2.74;100.00
70015;BME280;57358;51.094;6.760;2023-03-01T07:46:02;102329.94;;;-2.98;100.00
70015;BME280;57358;51.094;6.760;2023-03-01T07:48:30;102393.00;;;-2.51;100.00
70015;BME280;57358;51.094;6.760;2023-03-01T07:51:04;102350.31;;;-2.76;100.00
70015;BME280;57358;51.094;6.760;2023-03-01T07:53:32;102394.41;;;-2.32;100.00
70015;BME280;57358;51.094;6.760;2023-03-01T07:56:08;102390.22;;;-2.28;100.00
70015;BME280;57358;51.094;6.760;2023-03-01T07:58:37;102391.63;;;-2.08;100.00
70015;BME280;57358;51.094;6.760;2023-03-01T08:01:09;102358.84;;;-2.15;100.00
70015;BME280;57358;51.094;6.760;2023-03-01T08:03:36;102396.63;;;-1.81;100.00
70015;BME280;57358;51.094;6.760;2023-03-01T08:06:05;102377.09;;;-1.74;100.00
70015;BME280;57358;51.094;6.760;2023-03-01T08:08:33;102303.19;;;-2.13;100.00
70015;BME280;57358;51.094;6.760;2023-03-01T08:11:03;102359.22;;;-1.68;100.00
70015;BME280;57358;51.094;6.760;2023-03-01T08:13:31;102366.59;;;-1.48;100.00
70015;BME280;57358;51.094;6.760;2023-03-01T08:16:05;102302.59;;;-1.68;100.00
70015;BME280;57358;51.094;6.760;2023-03-01T08:18:32;102362.22;;;-1.14;100.00
70015;BME280;57358;51.094;6.760;2023-03-01T08:21:13;102370.28;;;-0.99;100.00
70015;BME280;57358;51.094;6.760;2023-03-01T08:23:42;102350.66;;;-0.94;99.28
70015;BME280;57358;51.094;6.760;2023-03-01T08:26:11;102364.72;;;-0.79;98.50
70015;BME280;57358;51.094;6.760;2023-03-01T08:28:39;102349.22;;;-0.81;97.61
70015;BME280;57358;51.094;6.760;2023-03-01T08:31:21;102363.50;;;-0.54;95.74
70015;BME280;57358;51.094;6.760;2023-03-01T08:33:51;102286.41;;;-0.85;94.04
70015;BME280;57358;51.094;6.760;2023-03-01T08:36:29;102305.94;;;-0.53;92.55
70015;BME280;57358;51.094;6.760;2023-03-01T08:38:56;102342.72;;;-0.19;89.76
70015;BME280;57358;51.094;6.760;2023-03-01T08:41:23;102299.63;;;-0.24;88.21
70015;BME280;57358;51.094;6.760;2023-03-01T08:43:50;102320.78;;;0.04;85.35
70015;BME280;57358;51.094;6.760;2023-03-01T08:46:17;102180.41;;;-0.54;83.61
70015;BME280;57358;51.094;6.760;2023-03-01T08:48:43;102234.59;;;-0.04;81.45
70015;BME280;57358;51.094;6.760;2023-03-01T08:51:16;102181.97;;;-0.12;80.88
70015;BME280;57358;51.094;6.760;2023-03-01T08:53:45;102259.50;;;0.47;79.92
70015;BME280;57358;51.094;6.760;2023-03-01T08:56:13;102258.75;;;0.56;78.91
70015;BME280;57358;51.094;6.760;2023-03-01T08:58:43;102246.75;;;0.59;77.44
70015;BME280;57358;51.094;6.760;2023-03-01T09:01:12;102236.56;;;0.70;77.15
70015;BME280;57358;51.094;6.760;2023-03-01T09:03:38;102208.94;;;0.65;76.90
70015;BME280;57358;51.094;6.760;2023-03-01T09:06:06;102223.84;;;0.86;76.10
70015;BME280;57358;51.094;6.760;2023-03-01T09:08:38;102228.31;;;0.99;75.80
70015;BME280;57358;51.094;6.760;2023-03-01T09:11:06;102222.44;;;1.11;74.98
70015;BME280;57358;51.094;6.760;2023-03-01T09:13:33;102113.19;;;0.54;74.95
70015;BME280;57358;51.094;6.760;2023-03-01T09:16:02;102214.03;;;1.32;74.40
70015;BME280;57358;51.094;6.760;2023-03-01T09:18:29;102134.41;;;1.02;73.46
70015;BME280;57358;51.094;6.760;2023-03-01T09:21:03;102197.06;;;1.58;72.23
70015;BME280;57358;51.094;6.760;2023-03-01T09:23:34;102194.59;;;1.75;72.23
70015;BME280;57358;51.094;6.760;2023-03-01T09:26:03;102186.19;;;2.01;70.55
70015;BME280;57358;51.094;6.760;2023-03-01T09:28:29;102120.63;;;2.08;67.51
70015;BME280;57358;51.094;6.760;2023-03-01T09:30:59;102080.09;;;2.18;66.61
70015;BME280;57358;51.094;6.760;2023-03-01T09:33:27;102043.03;;;2.31;64.82
70015;BME280;57358;51.094;6.760;2023-03-01T09:36:01;102028.38;;;2.39;64.26
70015;BME280;57358;51.094;6.760;2023-03-01T09:38:29;101852.88;;;1.48;63.45
70015;BME280;57358;51.094;6.760;2023-03-01T09:41:11;101977.41;;;2.25;63.60
70015;BME280;57358;51.094;6.760;2023-03-01T09:44:01;101992.16;;;2.49;63.53
70015;BME280;57358;51.094;6.760;2023-03-01T09:46:38;101935.13;;;2.50;62.59
70015;BME280;57358;51.094;6.760;2023-03-01T09:49:28;101954.16;;;2.89;61.96
70015;BME280;57358;51.094;6.760;2023-03-01T09:54:46;101899.69;;;3.02;59.56
70015;BME280;57358;51.094;6.760;2023-03-01T10:03:01;101926.44;;;3.33;60.41
70015;BME280;57358;51.094;6.760;2023-03-01T10:05:47;101881.50;;;3.20;59.97
70015;BME280;57358;51.094;6.760;2023-03-01T10:08:26;101884.97;;;3.25;59.18
70015;BME280;57358;51.094;6.760;2023-03-01T10:10:55;101878.84;;;3.42;59.01
70015;BME280;57358;51.094;6.760;2023-03-01T10:13:29;101834.66;;;3.54;58.31
70015;BME280;57358;51.094;6.760;2023-03-01T10:16:11;101698.25;;;3.08;56.09
70015;BME280;57358;51.094;6.760;2023-03-01T10:18:40;101620.56;;;2.90;55.69
70015;BME280;57358;51.094;6.760;2023-03-01T10:21:14;101689.56;;;3.15;56.34
70015;BME280;57358;51.094;6.760;2023-03-01T10:23:42;101787.75;;;3.89;56.37
70015;BME280;57358;51.094;6.760;2023-03-01T10:31:18;101631.16;;;3.79;53.55
70015;BME280;57358;51.094;6.760;2023-03-01T10:33:46;101640.81;;;3.62;54.33
70015;BME280;57358;51.094;6.760;2023-03-01T10:36:14;101669.16;;;3.87;54.75
70015;BME280;57358;51.094;6.760;2023-03-01T10:39:14;101694.16;;;3.98;55.23
70015;BME280;57358;51.094;6.760;2023-03-01T10:41:54;101647.22;;;4.18;53.32
70015;BME280;57358;51.094;6.760;2023-03-01T10:44:41;101679.81;;;4.49;53.51
70015;BME280;57358;51.094;6.760;2023-03-01T10:47:20;101668.47;;;4.56;53.72
70015;BME280;57358;51.094;6.760;2023-03-01T10:49:54;101641.03;;;4.32;53.47
70015;BME280;57358;51.094;6.760;2023-03-01T10:52:25;101621.28;;;4.14;54.57
70015;BME280;57358;51.094;6.760;2023-03-01T10:54:58;101663.19;;;4.62;53.68
70015;BME280;57358;51.094;6.760;2023-03-01T10:57:34;101638.28;;;4.46;53.98
70015;BME280;57358;51.094;6.760;2023-03-01T11:02:39;101548.41;;;4.28;52.43
70015;BME280;57358;51.094;6.760;2023-03-01T11:05:21;101527.25;;;4.54;52.06
70015;BME280;57358;51.094;6.760;2023-03-01T11:07:52;101520.97;;;4.70;51.10
70015;BME280;57358;51.094;6.760;2023-03-01T11:10:25;101390.38;;;3.95;51.81
70015;BME280;57358;51.094;6.760;2023-03-01T11:12:53;101514.78;;;4.77;51.87
70015;BME280;57358;51.094;6.760;2023-03-01T11:15:28;101487.34;;;4.56;51.73
70015;BME280;57358;51.094;6.760;2023-03-01T11:17:56;101411.06;;;4.02;52.00
70015;BME280;57358;51.094;6.760;2023-03-01T11:20:38;101422.31;;;4.00;51.40
70015;BME280;57358;51.094;6.760;2023-03-01T11:23:12;101524.94;;;4.93;51.66
70015;BME280;57358;51.094;6.760;2023-03-01T11:25:42;101448.78;;;4.85;50.26
70015;BME280;57358;51.094;6.760;2023-03-01T11:28:13;101390.81;;;4.79;49.83
70015;BME280;57358;51.094;6.760;2023-03-01T11:33:33;101478.09;;;5.47;50.51
70015;BME280;57358;51.094;6.760;2023-03-01T11:36:13;101344.41;;;5.03;49.28
70015;BME280;57358;51.094;6.760;2023-03-01T11:38:42;101390.41;;;5.49;48.66
70015;BME280;57358;51.094;6.760;2023-03-01T11:41:15;101406.66;;;5.60;48.92
70015;BME280;57358;51.094;6.760;2023-03-01T11:44:12;101409.81;;;5.75;48.28
70015;BME280;57358;51.094;6.760;2023-03-01T11:52:48;101360.28;;;5.36;49.06
70015;BME280;57358;51.094;6.760;2023-03-01T11:58:17;101420.19;;;5.78;49.45
70015;BME280;57358;51.094;6.760;2023-03-01T12:00:57;101376.88;;;5.72;48.93
70015;BME280;57358;51.094;6.760;2023-03-01T12:06:32;101354.31;;;5.73;48.72
70015;BME280;57358;51.094;6.760;2023-03-01T12:14:55;101306.31;;;5.83;47.60
70015;BME280;57358;51.094;6.760;2023-03-01T12:17:32;101352.84;;;6.02;48.57
70015;BME280;57358;51.094;6.760;2023-03-01T12:26:29;101416.34;;;6.36;48.35
70015;BME280;57358;51.094;6.760;2023-03-01T12:34:38;101281.22;;;5.80;48.33
70015;BME280;57358;51.094;6.760;2023-03-01T12:37:21;101416.50;;;6.66;48.27
70015;BME280;57358;51.094;6.760;2023-03-01T12:42:45;101259.22;;;6.30;47.43
70015;BME280;57358;51.094;6.760;2023-03-01T12:50:54;101264.81;;;6.49;48.00
70015;BME280;57358;51.094;6.760;2023-03-01T12:53:26;101277.13;;;6.44;48.42
70015;BME280;57358;51.094;6.760;2023-03-01T12:55:59;101325.56;;;6.16;48.69
70015;BME280;57358;51.094;6.760;2023-03-01T13:07:23;101371.84;;;6.44;49.23
70015;BME280;57358;51.094;6.760;2023-03-01T13:17:51;101365.72;;;6.45;49.88
70015;BME280;57358;51.094;6.760;2023-03-01T13:20:21;101398.03;;;6.39;49.74
70015;BME280;57358;51.094;6.760;2023-03-01T13:23:04;101418.81;;;6.43;50.10
70015;BME280;57358;51.094;6.760;2023-03-01T13:25:32;101362.25;;;6.45;48.92
70015;BME280;57358;51.094;6.760;2023-03-01T13:33:42;101339.91;;;6.69;48.66
70015;BME280;57358;51.094;6.760;2023-03-01T13:39:28;101332.91;;;6.71;48.41
70015;BME280;57358;51.094;6.760;2023-03-01T13:41:58;101335.25;;;6.47;48.97
70015;BME280;57358;51.094;6.760;2023-03-01T13:44:33;101328.16;;;6.87;48.54
70015;BME280;57358;51.094;6.760;2023-03-01T13:49:43;101352.19;;;6.65;49.10
70015;BME280;57358;51.094;6.760;2023-03-01T13:57:53;101314.66;;;6.36;49.44
70015;BME280;57358;51.094;6.760;2023-03-01T14:00:38;101380.94;;;6.26;50.38
70015;BME280;57358;51.094;6.760;2023-03-01T14:03:19;101473.13;;;6.61;51.35
70015;BME280;57358;51.094;6.760;2023-03-01T14:08:39;101377.72;;;6.52;50.43
70015;BME280;57358;51.094;6.760;2023-03-01T14:17:09;101421.06;;;6.58;50.36
70015;BME280;57358;51.094;6.760;2023-03-01T14:19:40;101321.16;;;6.20;50.65
70015;BME280;57358;51.094;6.760;2023-03-01T14:22:23;101370.84;;;6.50;50.37
70015;BME280;57358;51.094;6.760;2023-03-01T14:24:53;101182.53;;;5.31;50.54
70015;BME280;57358;51.094;6.760;2023-03-01T14:27:20;101388.06;;;6.19;51.34
70015;BME280;57358;51.094;6.760;2023-03-01T14:29:55;101428.53;;;6.36;51.68
70015;BME280;57358;51.094;6.760;2023-03-01T14:32:28;101377.00;;;6.08;51.38
70015;BME280;57358;51.094;6.760;2023-03-01T14:34:55;101408.91;;;6.19;51.85
70015;BME280;57358;51.094;6.760;2023-03-01T14:37:33;101182.25;;;5.04;51.41
70015;BME280;57358;51.094;6.760;2023-03-01T14:40:03;101173.63;;;4.60;52.04
70015;BME280;57358;51.094;6.760;2023-03-01T14:42:35;101410.19;;;6.02;51.93
70015;BME280;57358;51.094;6.760;2023-03-01T14:45:03;101401.28;;;6.10;52.18
70015;BME280;57358;51.094;6.760;2023-03-01T14:47:35;101368.81;;;5.85;51.78
70015;BME280;57358;51.094;6.760;2023-03-01T14:52:46;101425.41;;;6.20;51.48
70015;BME280;57358;51.094;6.760;2023-03-01T14:55:18;101383.03;;;6.10;51.17
70015;BME280;57358;51.094;6.760;2023-03-01T14:57:50;101332.22;;;5.89;51.30
70015;BME280;57358;51.094;6.760;2023-03-01T15:00:28;101371.63;;;6.16;51.24